createdAt,value
2022-10-30T00:07:48.511Z,18.30
2022-10-30T00:32:10.288Z,17.30
2022-10-30T00:47:36.255Z,31.60
2022-10-30T01:02:41.768Z,15.90
2022-10-30T01:18:20.084Z,13.30
2022-10-30T01:34:07.721Z,21.50
2022-10-30T01:49:38.225Z,23.40
2022-10-30T02:04:42.211Z,18.40
2022-10-30T02:19:46.195Z,14.90
2022-10-30T02:34:49.313Z,16.90
2022-10-30T02:49:52.453Z,29.10
2022-10-30T03:04:55.797Z,16.90
2022-10-30T03:19:59.073Z,18.60
2022-10-30T03:35:02.188Z,19.90
2022-10-30T03:50:05.782Z,14.50
2022-10-30T04:05:10.498Z,16.20
2022-10-30T04:20:13.867Z,14.20
2022-10-30T04:35:18.906Z,18.10
2022-10-30T04:50:22.473Z,16.70
2022-10-30T05:05:26.144Z,21.50
2022-10-30T05:20:29.610Z,18.70
2022-10-30T05:35:35.138Z,26.90
2022-10-30T05:50:39.613Z,18.70
2022-10-30T06:06:00.859Z,17.90
2022-10-30T06:21:04.289Z,40.90
2022-10-30T06:36:27.667Z,15.50
2022-10-30T06:51:32.043Z,23.60
2022-10-30T07:06:36.401Z,22.10
2022-10-30T07:21:41.060Z,30.10
2022-10-30T07:36:44.388Z,34.60
2022-10-30T07:52:01.106Z,36.20
2022-10-30T08:07:05.054Z,51.30
2022-10-30T08:22:09.512Z,29.00
2022-10-30T08:37:13.309Z,34.20
2022-10-30T08:52:17.807Z,24.90
2022-10-30T09:07:24.209Z,31.20
2022-10-30T09:22:46.046Z,46.20
2022-10-30T09:37:49.125Z,24.10
2022-10-30T09:52:57.529Z,20.60
2022-10-30T10:08:09.463Z,21.10
2022-10-30T10:23:50.720Z,15.50
2022-10-30T10:39:08.710Z,18.00
2022-10-30T10:54:19.026Z,15.80
2022-10-30T11:09:24.565Z,17.00
2022-10-30T11:24:33.584Z,13.50
2022-10-30T11:39:36.914Z,9.80
2022-10-30T11:54:45.469Z,8.90
2022-10-30T12:24:52.741Z,16.60
2022-10-30T12:40:10.512Z,16.40
2022-10-30T12:55:21.845Z,13.50
2022-10-30T13:10:48.356Z,16.00
2022-10-30T13:26:09.370Z,38.10
2022-10-30T13:41:48.169Z,40.30
2022-10-30T13:56:53.737Z,18.30
2022-10-30T14:11:57.040Z,53.50
2022-10-30T14:27:03.817Z,36.10
2022-10-30T14:42:16.570Z,28.20
2022-10-30T14:58:14.796Z,49.80
2022-10-30T15:13:21.585Z,31.70
2022-10-30T15:28:33.982Z,34.00
2022-10-30T15:43:41.781Z,112.40
2022-10-30T15:58:59.297Z,66.80
2022-10-30T16:14:09.338Z,68.50
2022-10-30T16:29:18.626Z,51.70
2022-10-30T16:44:31.066Z,59.40
2022-10-30T16:59:39.563Z,250.60
2022-10-30T17:15:05.457Z,127.80
2022-10-30T17:30:29.381Z,118.70
2022-10-30T17:45:32.569Z,209.30
2022-10-30T18:00:36.952Z,93.40
2022-10-30T18:15:58.099Z,112.30
2022-10-30T18:44:57.990Z,159.80
2022-10-30T19:00:04.489Z,287.20
2022-10-30T19:15:21.618Z,201.80
2022-10-30T19:30:24.841Z,156.00
2022-10-30T19:45:31.244Z,66.20
2022-10-30T20:00:37.956Z,89.40
2022-10-30T20:15:41.834Z,115.80
2022-10-30T20:30:46.194Z,150.90
2022-10-30T20:45:50.031Z,141.40
2022-10-30T21:00:55.933Z,186.20
2022-10-30T21:16:06.272Z,212.70
2022-10-30T21:31:14.026Z,246.30
2022-10-30T21:46:17.749Z,237.30
2022-10-30T22:01:24.014Z,196.30
2022-10-30T22:16:29.125Z,225.50
2022-10-30T22:31:32.837Z,194.40
2022-10-30T22:46:37.469Z,173.70
2022-10-30T23:01:41.604Z,103.00
2022-10-30T23:16:45.003Z,65.60
2022-10-30T23:31:48.433Z,74.40
2022-10-30T23:46:51.575Z,67.00
